Windham, Connecticut
Current Conditions -  °F | °C
As of 12:52 PM on Friday 24 Oct 2014 (Local Time) from KIJD Reporting Station
Overcast Overcast  
Wind Chill: 11°   Ceiling: 2100
Heat Index: 11°   Visibility: 10mi
Dew Point:   Wind: 13mph
Humidity: 69%   Direction: 320°NW
Pressure: 29.73"   Gusts: 21mph
Location:  41.7°N, 72.16°W
Report Text: KIJD 241652Z AUTO 32011G18KT 10SM OVC021 11/06 A2973 RMK AO2 SLP068 T01110056
Loading
Personal Weather Stations






























Interactive Weather Map
Tropical Storm Tracking
New forecast layout! Learn more

10-Day Weather Forecast

Advertisements
Track Severe Weather on mobile